Time;durP1;ratioP1;P1;durP2;ratioP2;P2;SDS_P1;SDS_P2;PMS_P1;PMS_P2;Temp;Humidity;BMP_temperature;BMP_pressure;BME280_temperature;BME280_humidity;BME280_pressure;Samples;Min_cycle;Max_cycle;Signal;HPM_P1;HPM_P2
2021/06/07 00:01:35;;;;;;;17.93;13.47;;;;;;;15.29;100.00;97173.09;5031880;28;20191;-61
2021/06/07 00:04:00;;;;;;;19.63;13.60;;;;;;;15.25;100.00;97173.84;5032556;28;20270;-61
2021/06/07 00:06:26;;;;;;;20.13;12.93;;;;;;;15.25;100.00;97174.66;5031377;28;20853;-61
2021/06/07 00:08:51;;;;;;;17.67;12.03;;;;;;;15.24;100.00;97172.25;5032616;28;20644;-61
2021/06/07 00:11:20;;;;;;;19.80;13.13;;;;;;;15.31;100.00;97173.66;5031027;28;20190;-61
2021/06/07 00:13:46;;;;;;;19.20;13.37;;;;;;;15.26;100.00;97180.72;5032459;28;20189;-61
2021/06/07 00:16:12;;;;;;;22.13;12.77;;;;;;;15.19;100.00;97175.63;5031435;28;20178;-61
2021/06/07 00:18:37;;;;;;;17.87;12.80;;;;;;;15.16;100.00;97172.66;5032283;28;20191;-61
2021/06/07 00:21:06;;;;;;;16.87;12.83;;;;;;;15.15;100.00;97179.00;5015150;28;20179;-61
2021/06/07 00:23:31;;;;;;;18.83;13.30;;;;;;;15.21;100.00;97172.75;5031926;28;20187;-61
2021/06/07 00:25:56;;;;;;;19.10;12.80;;;;;;;15.23;100.00;97173.28;5032104;28;20237;-61
2021/06/07 00:28:23;;;;;;;19.83;12.33;;;;;;;15.23;100.00;97173.28;5031055;28;20187;-61
2021/06/07 00:30:49;;;;;;;18.27;12.70;;;;;;;15.26;100.00;97173.59;5031792;28;20179;-62
2021/06/07 00:33:14;;;;;;;19.10;13.03;;;;;;;15.26;100.00;97181.53;5030812;28;20308;-61
2021/06/07 00:35:40;;;;;;;19.47;13.40;;;;;;;15.22;100.00;97183.03;5014001;28;20265;-62
2021/06/07 00:38:06;;;;;;;18.47;12.67;;;;;;;15.32;100.00;97172.59;5032015;28;20214;-61
2021/06/07 00:40:32;;;;;;;21.10;13.37;;;;;;;15.32;100.00;97171.81;5031462;28;20187;-62
2021/06/07 00:42:58;;;;;;;26.23;14.17;;;;;;;15.33;100.00;97179.47;5031465;28;20186;-61
2021/06/07 00:45:27;;;;;;;21.10;13.33;;;;;;;15.22;100.00;97177.75;5030772;28;20721;-61
2021/06/07 00:47:54;;;;;;;20.27;13.00;;;;;;;15.20;100.00;97177.22;5031381;28;20530;-61
2021/06/07 00:50:30;;;;;;;20.17;12.57;;;;;;;15.17;100.00;97172.41;5030738;28;20241;-61
2021/06/07 00:53:06;;;;;;;18.07;12.80;;;;;;;15.15;100.00;97186.94;5031535;28;20198;-62
2021/06/07 00:55:39;;;;;;;21.13;12.90;;;;;;;15.14;100.00;97175.56;5031219;28;20182;-62
2021/06/07 00:58:07;;;;;;;22.33;14.00;;;;;;;15.08;100.00;97171.25;5031900;28;20182;-61
2021/06/07 01:00:34;;;;;;;18.70;13.37;;;;;;;15.08;100.00;97170.47;5030864;28;20179;-61
2021/06/07 01:03:00;;;;;;;20.10;13.60;;;;;;;15.07;100.00;97176.78;5031310;28;20219;-62
2021/06/07 01:05:26;;;;;;;23.90;13.17;;;;;;;15.04;100.00;97162.25;5013362;28;20190;-61
2021/06/07 01:07:52;;;;;;;22.40;14.27;;;;;;;15.06;100.00;97165.41;5032065;28;20212;-61
2021/06/07 01:10:19;;;;;;;21.07;14.03;;;;;;;15.02;100.00;97163.53;5030623;28;20178;-61
2021/06/07 01:12:45;;;;;;;21.93;14.20;;;;;;;15.08;100.00;97163.34;5031479;28;20336;-61
2021/06/07 01:15:11;;;;;;;23.10;14.00;;;;;;;14.99;100.00;97165.59;5030853;28;20198;-60
2021/06/07 01:17:37;;;;;;;21.43;13.53;;;;;;;14.94;100.00;97165.53;5031362;28;20189;-62
2021/06/07 01:20:05;;;;;;;22.63;14.10;;;;;;;14.88;100.00;97158.59;5031665;28;20190;-61
2021/06/07 01:22:31;;;;;;;24.17;15.13;;;;;;;14.78;100.00;97169.03;5012137;28;20201;-61
2021/06/07 01:24:56;;;;;;;21.30;12.63;;;;;;;14.86;100.00;97160.69;5030894;28;20199;-61
2021/06/07 01:27:22;;;;;;;21.20;13.00;;;;;;;14.83;100.00;97152.44;5012202;28;20647;-61
2021/06/07 01:29:48;;;;;;;24.73;13.77;;;;;;;14.92;100.00;97157.09;5030925;28;20644;-61
2021/06/07 01:32:13;;;;;;;23.57;14.13;;;;;;;14.91;100.00;97157.31;5029935;28;20286;-61
2021/06/07 01:34:39;;;;;;;19.90;13.20;;;;;;;14.88;100.00;97158.59;5031336;28;20629;-61
2021/06/07 01:37:04;;;;;;;19.67;12.77;;;;;;;14.86;100.00;97155.41;5031149;28;20514;-61
2021/06/07 01:39:30;;;;;;;22.27;13.67;;;;;;;14.83;100.00;97147.16;5030263;28;20191;-61
2021/06/07 01:41:55;;;;;;;23.13;13.50;;;;;;;14.84;100.00;97143.50;5030988;28;20666;-62
2021/06/07 01:44:22;;;;;;;22.83;13.43;;;;;;;14.84;100.00;97140.84;5030050;28;20280;-63
2021/06/07 01:46:47;;;;;;;21.87;13.83;;;;;;;14.85;100.00;97135.34;5030690;28;20225;-61
2021/06/07 01:49:14;;;;;;;22.70;13.90;;;;;;;14.97;100.00;97143.16;5029809;28;20631;-60
2021/06/07 01:51:39;;;;;;;21.47;13.33;;;;;;;14.87;100.00;97135.91;5030731;28;20552;-63
2021/06/07 01:54:05;;;;;;;20.20;13.53;;;;;;;14.91;100.00;97138.84;5031450;28;20198;-63
2021/06/07 01:56:31;;;;;;;20.47;13.70;;;;;;;15.08;100.00;97139.59;5029854;28;21062;-62
2021/06/07 01:58:56;;;;;;;21.67;14.47;;;;;;;15.01;100.00;97138.16;5030933;28;20183;-62
2021/06/07 02:01:23;;;;;;;23.70;13.87;;;;;;;14.98;100.00;97139.47;5030134;28;20552;-62
2021/06/07 02:03:49;;;;;;;19.63;12.63;;;;;;;14.93;100.00;97131.50;5030462;28;20593;-62
2021/06/07 02:06:19;;;;;;;20.93;13.37;;;;;;;14.78;100.00;97129.44;5029996;28;20270;-62
2021/06/07 02:08:45;;;;;;;19.73;12.83;;;;;;;14.78;100.00;97132.06;5030956;28;20210;-62
2021/06/07 02:11:18;;;;;;;21.63;13.47;;;;;;;14.85;100.00;97129.25;5030228;28;20538;-62
2021/06/07 02:13:51;;;;;;;26.67;14.50;;;;;;;14.82;100.00;97133.19;5012197;28;20236;-63
2021/06/07 02:16:20;;;;;;;24.73;14.23;;;;;;;14.77;100.00;97129.66;5029623;28;20171;-62
2021/06/07 02:18:45;;;;;;;18.77;12.63;;;;;;;14.83;100.00;97132.13;5030963;28;20318;-62
2021/06/07 02:21:12;;;;;;;23.23;13.23;;;;;;;14.88;100.00;97136.69;5030312;28;20191;-62
2021/06/07 02:23:38;;;;;;;22.10;14.23;;;;;;;15.02;100.00;97130.00;5030681;28;20241;-63
2021/06/07 02:26:06;;;;;;;20.47;13.30;;;;;;;14.96;100.00;97134.41;5030730;28;20643;-62
2021/06/07 02:28:32;;;;;;;22.77;13.40;;;;;;;14.96;100.00;97142.34;5029828;28;20266;-62
2021/06/07 02:30:58;;;;;;;23.70;12.67;;;;;;;15.04;100.00;97146.41;5031029;28;20277;-62
2021/06/07 02:33:23;;;;;;;23.63;13.50;;;;;;;15.04;100.00;97140.31;5029807;28;20313;-62
2021/06/07 02:35:49;;;;;;;20.87;12.97;;;;;;;14.97;100.00;97148.41;5033570;28;20191;-62
2021/06/07 02:38:14;;;;;;;21.80;13.40;;;;;;;14.96;100.00;97147.63;5033155;28;20214;-62
2021/06/07 02:40:44;;;;;;;22.73;14.37;;;;;;;14.93;100.00;97144.69;5033486;28;20274;-62
2021/06/07 02:43:10;;;;;;;19.30;13.13;;;;;;;14.82;100.00;97140.31;5033975;28;20195;-62
2021/06/07 02:45:35;;;;;;;23.30;14.60;;;;;;;14.87;100.00;97146.47;5033295;28;20245;-62
2021/06/07 02:48:04;;;;;;;28.67;15.93;;;;;;;14.86;100.00;97150.13;5015963;28;20197;-62
2021/06/07 02:50:34;;;;;;;25.47;14.83;;;;;;;14.84;100.00;97144.28;5032727;28;20380;-62
2021/06/07 02:53:00;;;;;;;25.30;14.30;;;;;;;14.93;100.00;97147.31;5034204;28;20202;-63
2021/06/07 02:55:31;;;;;;;24.10;13.97;;;;;;;14.86;100.00;97146.69;5032930;28;20721;-62
2021/06/07 02:57:58;;;;;;;24.07;13.37;;;;;;;14.92;100.00;97141.25;5034026;28;20191;-62
2021/06/07 03:00:26;;;;;;;24.90;14.40;;;;;;;14.86;100.00;97147.50;5032792;28;20600;-63
2021/06/07 03:02:53;;;;;;;25.67;13.90;;;;;;;14.84;100.00;97139.00;5033836;28;20209;-62
2021/06/07 03:05:18;;;;;;;26.67;14.30;;;;;;;14.86;100.00;97142.22;5032882;28;20197;-62
2021/06/07 03:07:44;;;;;;;27.40;14.03;;;;;;;15.03;100.00;97150.09;5016244;28;20640;-62
2021/06/07 03:10:10;;;;;;;22.83;13.23;;;;;;;14.88;100.00;97148.03;5016110;28;20189;-62
2021/06/07 03:12:37;;;;;;;24.90;14.23;;;;;;;14.90;100.00;97145.97;5032943;28;20534;-62
2021/06/07 03:15:05;;;;;;;26.60;14.03;;;;;;;14.88;100.00;97144.59;5033631;28;20214;-62
2021/06/07 03:17:30;;;;;;;27.60;13.83;;;;;;;14.87;100.00;97145.66;5033065;28;20193;-62
2021/06/07 03:19:56;;;;;;;25.13;14.03;;;;;;;14.82;100.00;97141.09;5033751;28;20182;-62
2021/06/07 03:22:22;;;;;;;27.33;14.33;;;;;;;14.84;100.00;97146.13;5014880;28;20217;-62
2021/06/07 03:24:49;;;;;;;24.67;13.63;;;;;;;14.83;100.00;97144.53;5033228;28;20179;-62
2021/06/07 03:27:15;;;;;;;25.73;14.53;;;;;;;14.83;100.00;97145.34;5015247;28;20194;-62
2021/06/07 03:29:40;;;;;;;24.77;14.27;;;;;;;14.82;100.00;97143.72;5033836;28;20183;-62
2021/06/07 03:32:06;;;;;;;23.40;14.83;;;;;;;14.72;100.00;97146.25;5033267;28;20209;-62
2021/06/07 03:34:32;;;;;;;24.77;14.70;;;;;;;14.69;100.00;97148.56;5010269;28;20782;-62
2021/06/07 03:36:57;;;;;;;27.93;15.07;;;;;;;14.80;100.00;97150.31;5013207;28;20195;-62
2021/06/07 03:39:23;;;;;;;32.47;15.20;;;;;;;14.79;100.00;97146.06;5012640;28;20201;-62
2021/06/07 03:41:48;;;;;;;28.73;16.07;;;;;;;14.82;100.00;97151.66;5012904;28;20195;-63
2021/06/07 03:44:13;;;;;;;27.90;15.60;;;;;;;14.77;100.00;97148.16;5011404;28;20233;-61
2021/06/07 03:46:39;;;;;;;25.53;14.53;;;;;;;14.87;100.00;97148.31;5012305;28;20191;-62
2021/06/07 03:49:04;;;;;;;27.20;14.37;;;;;;;14.81;100.00;97149.28;5012781;28;20214;-62
2021/06/07 03:51:30;;;;;;;25.93;14.43;;;;;;;14.75;100.00;97148.41;5012344;28;20204;-62
2021/06/07 03:53:55;;;;;;;28.80;14.87;;;;;;;14.83;100.00;97147.16;5012956;28;20187;-63
2021/06/07 03:56:21;;;;;;;25.27;14.50;;;;;;;14.83;100.00;97153.25;5012040;28;20628;-62
2021/06/07 03:58:46;;;;;;;38.67;15.50;;;;;;;14.92;100.00;97151.81;5013037;28;20218;-63
2021/06/07 04:01:11;;;;;;;30.73;14.87;;;;;;;14.76;100.00;97151.84;5012779;28;20187;-62
2021/06/07 04:03:37;;;;;;;25.23;14.53;;;;;;;14.76;100.00;97149.22;5011870;28;20278;-62
2021/06/07 04:06:03;;;;;;;26.07;15.67;;;;;;;14.74;100.00;97146.00;5011470;28;20606;-62
2021/06/07 04:08:28;;;;;;;30.93;14.33;;;;;;;14.73;100.00;97141.75;5004488;28;20191;-62
2021/06/07 04:10:54;;;;;;;23.70;14.87;;;;;;;14.77;100.00;97146.31;5012995;28;20183;-63
2021/06/07 04:13:19;;;;;;;26.83;14.33;;;;;;;14.76;100.00;97147.38;5011897;28;20242;-62
2021/06/07 04:15:45;;;;;;;28.13;15.10;;;;;;;14.76;100.00;97136.00;5012369;28;20258;-62
2021/06/07 04:18:10;;;;;;;26.40;13.93;;;;;;;14.82;100.00;97142.97;5012422;28;20182;-62
2021/06/07 04:20:36;;;;;;;25.97;15.33;;;;;;;14.79;100.00;97143.44;5012065;28;20191;-63
2021/06/07 04:23:02;;;;;;;30.60;15.53;;;;;;;14.79;100.00;97144.22;5012470;28;20237;-62
2021/06/07 04:25:29;;;;;;;25.57;14.70;;;;;;;14.75;100.00;97139.69;5011490;28;20644;-62
2021/06/07 04:27:57;;;;;;;27.10;14.93;;;;;;;14.67;100.00;97138.25;5013068;28;20199;-62
2021/06/07 04:30:23;;;;;;;27.03;15.10;;;;;;;14.74;100.00;97146.00;5010843;28;20183;-62
2021/06/07 04:32:51;;;;;;;22.73;14.67;;;;;;;14.75;100.00;97131.78;5015105;28;20740;-62
2021/06/07 04:35:16;;;;;;;24.97;14.40;;;;;;;14.64;100.00;97143.25;5031035;28;20174;-61
2021/06/07 04:38:04;;;;;;;24.27;14.27;;;;;;;14.71;100.00;97143.88;5031512;28;20194;-62
2021/06/07 04:40:32;;;;;;;29.20;15.27;;;;;;;14.66;100.00;97136.66;5030069;28;20198;-62
2021/06/07 04:43:01;;;;;;;29.17;15.03;;;;;;;14.72;100.00;97137.53;5031827;28;20657;-62
2021/06/07 04:45:28;;;;;;;25.60;15.47;;;;;;;14.66;100.00;97136.66;5031181;28;20550;-61
2021/06/07 04:47:54;;;;;;;26.77;14.33;;;;;;;14.62;100.00;97132.91;5031593;28;20526;-62
2021/06/07 04:50:21;;;;;;;28.80;14.93;;;;;;;14.75;100.00;97131.78;5031041;28;20674;-62
2021/06/07 04:53:00;;;;;;;24.50;14.60;;;;;;;14.63;100.00;97128.44;5031711;28;20203;-62
2021/06/07 04:55:41;;;;;;;25.23;14.67;;;;;;;14.68;100.00;97131.94;5030932;28;20179;-61
2021/06/07 04:58:13;;;;;;;29.53;15.67;;;;;;;14.74;100.00;97123.06;5031108;28;20178;-62
2021/06/07 05:00:42;;;;;;;28.57;16.73;;;;;;;14.81;100.00;97120.25;5031168;28;20653;-62
2021/06/07 05:03:07;;;;;;;28.03;14.80;;;;;;;14.84;100.00;97123.19;5031352;28;20194;-62
2021/06/07 05:05:33;;;;;;;30.07;14.77;;;;;;;14.85;100.00;97121.34;5030409;28;20182;-62
2021/06/07 05:07:59;;;;;;;28.27;14.97;;;;;;;14.80;100.00;97132.63;5013851;28;20182;-62
2021/06/07 05:10:24;;;;;;;28.63;14.83;;;;;;;14.84;100.00;97130.31;5030696;28;20590;-62
2021/06/07 05:12:50;;;;;;;32.90;15.23;;;;;;;14.87;100.00;97133.25;5031156;28;20226;-61
2021/06/07 05:15:16;;;;;;;26.43;15.27;;;;;;;14.74;100.00;97138.09;5031321;28;20244;-60
2021/06/07 05:17:42;;;;;;;26.50;14.23;;;;;;;14.66;100.00;97134.03;5030448;28;20197;-61
2021/06/07 05:20:11;;;;;;;28.70;15.27;;;;;;;14.72;100.00;97132.25;5031423;28;20249;-61
2021/06/07 05:22:37;;;;;;;24.33;13.67;;;;;;;14.53;100.00;97134.38;5030548;28;20186;-64
2021/06/07 05:25:04;;;;;;;29.10;14.03;;;;;;;14.59;100.00;97130.78;5031030;28;20183;-61
2021/06/07 05:27:29;;;;;;;30.97;15.57;;;;;;;14.66;100.00;97136.66;5030153;28;20233;-61
2021/06/07 05:29:55;;;;;;;27.00;14.17;;;;;;;14.65;100.00;97143.00;5031435;28;20190;-61
2021/06/07 05:32:20;;;;;;;29.93;15.23;;;;;;;14.61;100.00;97144.50;5030223;28;20284;-61
2021/06/07 05:34:45;;;;;;;27.97;14.27;;;;;;;14.59;100.00;97145.81;5030527;28;20227;-61
2021/06/07 05:37:11;;;;;;;26.23;15.27;;;;;;;14.64;100.00;97145.88;5031065;28;20186;-61
2021/06/07 05:39:36;;;;;;;27.17;14.50;;;;;;;14.60;100.00;97150.81;5029726;28;20194;-61
2021/06/07 05:42:02;;;;;;;28.03;14.40;;;;;;;14.52;100.00;97152.06;5031638;28;20186;-61
2021/06/07 05:44:28;;;;;;;29.70;16.53;;;;;;;14.66;100.00;97149.03;5030257;28;20186;-62
2021/06/07 05:46:53;;;;;;;31.50;14.63;;;;;;;14.60;100.00;97148.19;5030209;28;20538;-61
2021/06/07 05:49:19;;;;;;;33.00;14.47;;;;;;;14.67;100.00;97159.38;5030275;28;20209;-61
2021/06/07 05:51:45;;;;;;;26.57;14.63;;;;;;;14.72;100.00;97156.78;5030325;28;20738;-61
2021/06/07 05:54:11;;;;;;;28.93;13.83;;;;;;;14.72;100.00;97153.34;5031414;28;20270;-62
2021/06/07 05:56:37;;;;;;;43.33;13.43;;;;;;;14.67;100.00;97166.47;5030161;28;20821;-61
2021/06/07 05:59:04;;;;;;;27.60;13.67;;;;;;;14.61;100.00;97159.53;5013785;28;20266;-61
2021/06/07 06:01:31;;;;;;;35.40;14.27;;;;;;;14.76;100.00;97159.75;5029767;28;20229;-61
2021/06/07 06:03:58;;;;;;;27.50;14.30;;;;;;;14.85;100.00;97156.44;5030096;28;20198;-61
2021/06/07 06:06:24;;;;;;;27.87;14.47;;;;;;;14.72;100.00;97164.72;5029696;28;20663;-61
2021/06/07 06:08:51;;;;;;;30.37;13.93;;;;;;;14.71;100.00;97157.84;5031589;28;20186;-61
2021/06/07 06:11:17;;;;;;;29.70;12.97;;;;;;;14.66;100.00;97170.97;5034246;28;20648;-61
2021/06/07 06:13:43;;;;;;;30.30;14.20;;;;;;;14.85;100.00;97171.50;5034670;28;20183;-60
2021/06/07 06:16:08;;;;;;;23.60;12.57;;;;;;;14.88;100.00;97163.06;5034397;28;20182;-60
2021/06/07 06:18:37;;;;;;;24.37;13.10;;;;;;;14.89;100.00;97164.66;5033441;28;20508;-61
2021/06/07 06:21:02;;;;;;;31.67;14.23;;;;;;;14.94;100.00;97170.00;5034825;28;20191;-61
2021/06/07 06:23:27;;;;;;;20.97;12.30;;;;;;;14.82;100.00;97178.03;5033382;28;20320;-61
2021/06/07 06:25:53;;;;;;;23.93;12.53;;;;;;;14.78;100.00;97169.03;5033066;28;20308;-61
2021/06/07 06:28:18;;;;;;;28.00;13.07;;;;;;;14.82;100.00;97174.63;5028691;28;20190;-61
2021/06/07 06:30:44;;;;;;;19.53;12.10;;;;;;;14.93;100.00;97173.72;5032774;28;20252;-61
2021/06/07 06:33:09;;;;;;;19.70;12.10;;;;;;;15.03;100.00;97175.69;5033101;28;20242;-61
2021/06/07 06:35:35;;;;;;;22.20;12.30;;;;;;;15.17;100.00;97176.91;5028040;28;20647;-61
2021/06/07 06:38:00;;;;;;;25.27;13.10;;;;;;;15.19;100.00;97177.47;5031517;28;20197;-61
2021/06/07 06:40:29;;;;;;;21.17;12.23;;;;;;;15.26;100.00;97178.09;5031849;28;20269;-61
2021/06/07 06:42:56;;;;;;;23.70;12.63;;;;;;;15.22;100.00;97174.31;5033337;28;20293;-61
2021/06/07 06:45:22;;;;;;;20.57;11.70;;;;;;;15.25;100.00;97177.28;5025625;28;20670;-61
2021/06/07 06:47:55;;;;;;;22.13;12.20;;;;;;;15.20;100.00;97179.06;5031699;28;20286;-61
2021/06/07 06:50:21;;;;;;;20.33;11.67;;;;;;;15.28;100.00;97184.69;5030685;28;20174;-61
2021/06/07 06:52:47;;;;;;;21.93;12.47;;;;;;;15.20;100.00;97185.16;5015498;28;20206;-61
2021/06/07 06:55:12;;;;;;;20.93;12.43;;;;;;;15.36;100.00;97184.28;5032059;28;20186;-61
2021/06/07 06:57:37;;;;;;;19.87;11.43;;;;;;;15.43;100.00;97191.22;5014601;28;20278;-62
2021/06/07 07:00:05;;;;;;;19.93;11.87;;;;;;;15.35;100.00;97187.97;5032850;28;20214;-61
2021/06/07 07:02:32;;;;;;;19.30;11.20;;;;;;;15.25;100.00;97190.50;5031805;28;20194;-61
2021/06/07 07:04:57;;;;;;;17.83;11.23;;;;;;;15.40;100.00;97193.31;5033351;28;20218;-61
2021/06/07 07:07:23;;;;;;;15.93;11.47;;;;;;;15.23;100.00;97195.22;5032068;28;20214;-61
2021/06/07 07:09:48;;;;;;;17.80;10.20;;;;;;;15.25;100.00;97192.34;5032395;28;20324;-61
2021/06/07 07:12:13;;;;;;;19.83;10.43;;;;;;;15.24;100.00;97188.09;5040971;28;20547;-61
2021/06/07 07:14:40;;;;;;;15.67;10.13;;;;;;;15.32;100.00;97191.09;5037059;28;20189;-61
2021/06/07 07:17:06;;;;;;;15.07;9.70;;;;;;;15.47;100.00;97194.97;5032796;28;20190;-61
2021/06/07 07:19:33;;;;;;;16.10;9.67;;;;;;;15.38;100.00;97189.28;5014641;28;20182;-61
2021/06/07 07:22:00;;;;;;;13.63;9.63;;;;;;;15.33;100.00;97186.59;5014181;28;20198;-61
2021/06/07 07:24:25;;;;;;;15.90;9.07;;;;;;;15.40;100.00;97192.50;5031724;28;20206;-60
2021/06/07 07:26:51;;;;;;;11.60;8.37;;;;;;;15.44;100.00;97190.97;5015120;28;20225;-61
2021/06/07 07:29:16;;;;;;;12.47;8.37;;;;;;;15.31;100.00;97192.16;5032479;28;20191;-61
2021/06/07 07:31:42;;;;;;;12.43;8.07;;;;;;;15.40;100.00;97195.94;5032415;28;20214;-61
2021/06/07 07:34:07;;;;;;;10.57;7.97;;;;;;;15.37;100.00;97198.28;5031310;28;20630;-61
2021/06/07 07:36:33;;;;;;;11.90;7.80;;;;;;;15.32;100.00;97195.59;5031211;28;20178;-60
2021/06/07 07:38:58;;;;;;;10.77;7.80;;;;;;;15.09;100.00;97190.53;5032326;28;20241;-61
2021/06/07 07:41:25;;;;;;;12.70;7.80;;;;;;;15.09;100.00;97194.00;5031610;28;20190;-60
2021/06/07 07:43:51;;;;;;;11.83;7.40;;;;;;;15.24;100.00;97204.72;5014826;28;20278;-61
2021/06/07 07:46:16;;;;;;;11.13;7.93;;;;;;;15.24;100.00;97199.44;5031236;28;20265;-60
2021/06/07 07:48:41;;;;;;;11.73;7.93;;;;;;;15.22;100.00;97201.53;5031873;28;20190;-60
2021/06/07 07:51:07;;;;;;;9.57;6.93;;;;;;;15.11;100.00;97199.81;5032160;28;20602;-60
2021/06/07 07:53:32;;;;;;;12.23;7.73;;;;;;;15.19;100.00;97206.50;5031011;28;20896;-60
2021/06/07 07:55:58;;;;;;;11.80;7.67;;;;;;;15.11;100.00;97204.28;5032020;28;20266;-60
2021/06/07 07:58:23;;;;;;;11.63;8.00;;;;;;;15.02;100.00;97206.56;5031148;28;20631;-60
2021/06/07 08:00:49;;;;;;;12.77;8.50;;;;;;;15.22;100.00;97200.72;5031393;28;20648;-60
2021/06/07 08:03:16;;;;;;;13.23;8.27;;;;;;;15.21;100.00;97205.22;5031300;28;20225;-60
2021/06/07 08:05:42;;;;;;;14.23;8.77;;;;;;;15.35;100.00;97208.28;5030968;28;20195;-60
2021/06/07 08:08:08;;;;;;;13.07;8.43;;;;;;;15.47;100.00;97213.44;5031495;28;20181;-60
2021/06/07 08:10:33;;;;;;;11.60;7.80;;;;;;;15.64;100.00;97206.28;5031160;28;20190;-60
2021/06/07 08:12:59;;;;;;;11.18;7.72;;;;;;;15.81;100.00;97209.63;5031398;28;20257;-61
2021/06/07 08:15:25;;;;;;;11.13;7.23;;;;;;;15.82;100.00;97202.50;5013089;28;20236;-60
2021/06/07 08:17:51;;;;;;;11.60;8.32;;;;;;;15.73;100.00;97207.44;5031374;28;20210;-60
2021/06/07 08:20:18;;;;;;;13.00;8.53;;;;;;;15.62;100.00;97203.88;5030362;28;20175;-60
2021/06/07 08:22:46;;;;;;;10.53;7.73;;;;;;;15.66;100.00;97201.56;5031730;28;20624;-61
2021/06/07 08:25:12;;;;;;;12.13;8.53;;;;;;;15.86;100.00;97214.97;5031804;28;20225;-61
2021/06/07 08:27:38;;;;;;;14.25;8.73;;;;;;;15.78;100.00;97202.19;5030922;28;20245;-60
2021/06/07 08:30:06;;;;;;;12.55;8.70;;;;;;;15.83;100.00;97201.47;5031795;28;20175;-60
2021/06/07 08:32:31;;;;;;;12.53;7.80;;;;;;;15.75;100.00;97208.78;5030321;28;20194;-60
2021/06/07 08:34:56;;;;;;;11.15;8.23;;;;;;;15.89;100.00;97200.44;5031013;28;20688;-61
2021/06/07 08:37:22;;;;;;;11.55;7.82;;;;;;;15.88;100.00;97201.50;5028742;28;20203;-61
2021/06/07 08:39:47;;;;;;;10.57;8.03;;;;;;;15.74;100.00;97207.19;5011801;28;20178;-60
2021/06/07 08:42:14;;;;;;;12.43;8.13;;;;;;;15.77;100.00;97208.53;5030526;28;20578;-60
2021/06/07 08:44:40;;;;;;;10.97;7.10;;;;;;;15.76;100.00;97202.47;5030494;28;20187;-60
2021/06/07 08:47:06;;;;;;;10.40;8.13;;;;;;;15.71;100.00;97198.97;5030617;28;20190;-60
2021/06/07 08:49:32;;;;;;;12.47;8.23;;;;;;;15.84;100.00;97203.03;5030002;28;20313;-60
2021/06/07 08:51:57;;;;;;;11.50;7.70;;;;;;;15.69;100.00;97208.97;5031487;28;20229;-60
2021/06/07 08:54:23;;;;;;;12.60;7.93;;;;;;;15.67;100.00;97206.56;5012910;28;20260;-61
2021/06/07 08:56:48;;;;;;;9.23;7.43;;;;;;;15.67;100.00;97208.41;5031350;28;20183;-61
2021/06/07 08:59:15;;;;;;;12.30;8.73;;;;;;;15.85;100.00;97207.28;5030714;28;20194;-60
2021/06/07 09:01:41;;;;;;;10.70;7.93;;;;;;;16.04;100.00;97211.19;5030086;28;20183;-60
2021/06/07 09:04:18;;;;;;;10.17;8.40;;;;;;;15.88;100.00;97220.03;5031051;28;20186;-60
2021/06/07 09:06:50;;;;;;;10.17;8.03;;;;;;;15.96;100.00;97216.91;5029880;28;20635;-60
2021/06/07 09:09:19;;;;;;;11.93;8.60;;;;;;;16.11;100.00;97219.69;5030415;28;20220;-60
2021/06/07 09:12:00;;;;;;;10.77;7.73;;;;;;;16.34;100.00;97214.06;5030879;28;20217;-60
2021/06/07 09:14:31;;;;;;;11.82;8.95;;;;;;;16.37;100.00;97220.72;5015228;28;20171;-61
2021/06/07 09:16:57;;;;;;;10.73;8.48;;;;;;;16.35;100.00;97218.31;5013399;28;20178;-60
2021/06/07 09:19:30;;;;;;;14.38;8.68;;;;;;;16.40;100.00;97217.56;5030159;28;20178;-61
2021/06/07 09:22:20;;;;;;;12.93;8.82;;;;;;;16.76;100.00;97210.72;5030441;28;20726;-61
2021/06/07 09:25:06;;;;;;;12.85;9.63;;;;;;;16.68;100.00;97213.81;5030483;28;20186;-61
2021/06/07 09:27:32;;;;;;;12.52;8.85;;;;;;;16.63;100.00;97214.59;5023915;28;20178;-60
2021/06/07 09:29:58;;;;;;;13.95;8.85;;;;;;;16.48;100.00;97209.16;5030728;28;20643;-61
2021/06/07 09:32:24;;;;;;;15.20;9.90;;;;;;;16.71;100.00;97215.97;5029906;28;20721;-60
2021/06/07 09:35:07;;;;;;;12.30;9.00;;;;;;;16.68;100.00;97219.13;5029243;28;20352;-61
2021/06/07 09:37:33;;;;;;;13.20;9.40;;;;;;;16.63;100.00;97212.75;5029207;28;20957;-60
2021/06/07 09:40:20;;;;;;;16.20;8.95;;;;;;;16.61;100.00;97219.34;5030703;28;20190;-61
2021/06/07 09:42:55;;;;;;;15.55;10.90;;;;;;;16.50;100.00;97220.28;5030859;28;20213;-61
2021/06/07 09:45:45;;;;;;;14.43;10.02;;;;;;;16.40;100.00;97225.50;5022591;28;20261;-60
2021/06/07 09:48:13;;;;;;;15.18;10.15;;;;;;;16.40;100.00;97225.50;5034783;28;20171;-61
2021/06/07 09:50:58;;;;;;;15.67;10.93;;;;;;;16.32;100.00;97226.78;5034359;28;20197;-60
2021/06/07 09:53:45;;;;;;;14.43;10.45;;;;;;;16.55;100.00;97221.13;5014883;28;20711;-60
2021/06/07 09:56:11;;;;;;;20.67;10.60;;;;;;;16.45;100.00;97225.53;5022013;28;20624;-61
2021/06/07 09:58:36;;;;;;;14.40;10.20;;;;;;;16.64;100.00;97224.13;5033558;28;20193;-61
2021/06/07 10:01:31;;;;;;;13.35;9.98;;;;;;;16.75;100.00;97219.72;5034510;28;20206;-61
2021/06/07 10:03:58;;;;;;;18.00;10.50;;;;;;;16.94;100.00;97229.63;5025269;28;20190;-61
2021/06/07 10:06:26;;;;;;;13.52;10.30;;;;;;;16.88;100.00;97233.31;5033483;28;20194;-61
2021/06/07 10:08:58;;;;;;;16.38;10.45;;;;;;;16.83;100.00;97227.19;5034302;28;20213;-61
2021/06/07 10:11:37;;;;;;;14.75;10.60;;;;;;;16.84;100.00;97229.56;5033002;28;20167;-61
2021/06/07 10:14:15;;;;;;;15.10;10.57;;;;;;;17.16;100.00;97228.69;5034450;28;20540;-61
2021/06/07 10:17:07;;;;;;;16.70;10.35;;;;;;;17.43;100.00;97229.34;5033278;28;20269;-61
2021/06/07 10:22:10;;;;;;;11.50;8.85;;;;;;;17.42;100.00;97225.91;5034238;28;20250;-61
2021/06/07 10:24:35;;;;;;;13.75;10.02;;;;;;;17.56;100.00;97220.91;5032874;28;20345;-61
2021/06/07 10:27:01;;;;;;;12.77;9.38;;;;;;;17.73;100.00;97223.38;5033899;28;20262;-61
2021/06/07 10:29:35;;;;;;;11.52;9.18;;;;;;;17.48;100.00;97221.41;5033251;28;20189;-60
2021/06/07 10:32:09;;;;;;;13.15;9.90;;;;;;;17.60;100.00;97223.88;5034114;28;20198;-61
2021/06/07 10:34:49;;;;;;;13.10;9.57;;;;;;;17.58;100.00;97224.09;5014261;28;20238;-61
2021/06/07 10:37:15;;;;;;;11.10;9.15;;;;;;;17.51;100.00;97226.19;5014480;28;20190;-60
2021/06/07 10:39:41;;;;;;;11.23;8.48;;;;;;;17.64;100.00;97220.44;5015249;28;20193;-61
2021/06/07 10:42:09;;;;;;;12.63;9.25;;;;;;;17.78;100.00;97228.69;5033168;28;20644;-61
2021/06/07 10:44:38;;;;;;;13.23;9.75;;;;;;;17.52;100.00;97224.34;5032351;28;20368;-61
2021/06/07 10:47:08;;;;;;;14.20;9.50;;;;;;;17.48;100.00;97226.72;5033101;28;20197;-61
2021/06/07 10:49:38;;;;;;;13.73;10.38;;;;;;;17.19;100.00;97228.16;5015382;28;20202;-61
2021/06/07 10:52:13;;;;;;;17.02;11.07;;;;;;;17.29;100.00;97231.66;5033365;28;20198;-61
2021/06/07 10:54:44;;;;;;;15.90;10.20;;;;;;;17.27;100.00;97225.03;5032874;28;20205;-61
2021/06/07 10:57:22;;;;;;;15.15;11.00;;;;;;;17.18;100.00;97230.03;5033424;28;20225;-61
2021/06/07 10:59:50;;;;;;;15.65;10.57;;;;;;;17.19;100.00;97228.16;5022327;28;20659;-61
2021/06/07 11:02:17;;;;;;;16.92;11.30;;;;;;;17.30;100.00;97232.47;5023440;28;20194;-61
2021/06/07 11:04:43;;;;;;;16.52;10.80;;;;;;;17.40;100.00;97232.50;5032829;28;20190;-61
2021/06/07 11:07:09;;;;;;;17.23;11.40;;;;;;;17.33;100.00;97231.97;5033275;28;20190;-61
2021/06/07 11:09:35;;;;;;;16.83;11.05;;;;;;;17.31;100.00;97228.75;5032120;28;20190;-61
2021/06/07 11:12:03;;;;;;;16.75;10.38;;;;;;;17.34;100.00;97233.53;5032505;28;20256;-61
2021/06/07 11:14:28;;;;;;;14.90;10.52;;;;;;;17.35;100.00;97230.63;5014287;28;20232;-61
2021/06/07 11:16:54;;;;;;;16.30;10.73;;;;;;;17.29;100.00;97234.31;5032432;28;20272;-61